首页
METAR-TAF:

METAR-TAF

机场 :

梅薩, 亞利桑那州, 美国

纬度: 33-19N, 经度: 111-39W, 海拔: 421米

当前天气观测

该预报发布于33分钟前的22:52 UTC
风速11节,风向西,有时为18节阵风
温度
气压 1005 hPa
能見度: 16.1公里
天空无云

METAR: KIWA 152252Z 26011G18KT 10SM CLR 42/010 A2968

时间: 16:25 (23:25 UTC)

预报

该预报发布于5小时和59分钟前的17:26 UTC
预报有效从15日的 18点(UTC)到 16日的 18点(UTC)
风速6节,风向
能見度: 10公里
天空无云
从 15日的 1900点(UTC)
风速8节,风向西
能見度: 10公里
天空无云
从 16日的 0700点(UTC)
风速8节,风向东转东南
能見度: 10公里
天空无云

TAF: KIWA 151726Z 1518/1618 19006KT P6SM SKC FM151900 27008KT P6SM SKC FM160700 12008KT P6SM SKC

超过4000个机场的气象观测和天气预报(METAR&TAF报告)。

可查询的气象台以黄色和红色小点在地图上表示。

将鼠标移到小点上方,可查看气象台名称。

然后点击查看天气观测和预报。

如需切换地图:点击带黑十字的绿色按钮放大地图;点击带横线的绿色按钮缩小地图;或者点击绿色箭头查看邻近地区的地图。


METAR-TAF: